Date,TemperatureHighF,TemperatureAvgF,TemperatureLowF,DewpointHighF,DewpointAvgF,DewpointLowF,HumidityHigh,HumidityAvg,HumidityLow,PressureMaxIn,PressureMinIn,WindSpeedMaxMPH,WindSpeedAvgMPH,GustSpeedMaxMPH,PrecipitationSumIn
2013-1-1,80,74,71,71,67,62,91,79,71,30.15,30.01,10,6,17,0.00
2013-1-2,81,74,70,74,71,68,95,89,77,30.07,29.99,7,3,10,0.00
2013-1-3,83,76,70,77,72,68,96,90,77,30.11,30.01,7,3,12,0.01
2013-1-4,84,76,71,77,73,69,97,91,74,30.20,30.09,16,5,19,0.01
2013-1-5,81,75,71,74,72,69,97,91,76,30.20,30.10,14,7,19,0.01
2013-1-6,83,77,74,77,73,72,95,89,78,30.15,30.03,10,6,16,0.01
2013-1-7,83,77,74,74,72,70,93,84,70,30.11,30.03,9,5,15,0.00
2013-1-8,83,78,74,75,73,72,95,86,72,30.15,30.03,11,8,20,0.00
2013-1-9,83,79,77,75,73,72,90,84,74,30.20,30.09,15,10,23,0.00
2013-1-10,81,78,76,73,72,69,87,81,73,30.23,30.11,15,10,24,0.00
2013-1-11,83,77,75,72,69,65,87,76,57,30.19,30.10,14,9,25,0.00
2013-1-12,82,77,74,73,70,68,87,81,72,30.13,30.04,12,7,21,0.00
2013-1-13,82,76,74,72,68,64,89,77,65,30.08,30.01,14,9,23,0.00
2013-1-14,81,76,74,70,67,64,78,73,64,30.12,30.06,11,8,21,0.00
2013-1-15,83,76,73,71,69,67,83,77,66,30.10,30.01,10,7,17,0.00
2013-4-7,82,78,72,72,69,67,86,76,67,30.08,29.97,12,8,21,0.00
2013-4-11,79,79,79,76,76,75,90,90,89,29.89,29.87,13,11,20,0.00
2013-4-12,87,81,78,79,76,75,93,86,74,29.96,29.85,19,8,26,0.00
2013-4-13,89,82,79,79,76,74,93,83,67,29.97,29.87,15,6,22,0.00
2013-4-14,88,82,78,78,76,74,90,82,72,29.94,29.86,13,9,18,0.00
2013-4-15,89,83,79,79,77,74,91,82,67,30.02,29.90,14,6,18,0.00
2013-4-16,89,83,80,79,76,73,89,80,67,30.07,29.98,10,7,18,0.00
2013-4-17,88,82,79,77,74,72,86,77,66,30.07,29.97,11,8,20,0.00
2013-4-18,87,82,76,77,75,72,92,80,69,30.01,29.93,15,10,29,0.14
2013-4-19,88,82,79,78,75,73,86,80,70,30.01,29.93,16,10,26,0.14
2013-4-20,88,82,79,80,77,74,91,85,75,30.05,29.94,16,5,25,0.13
2013-4-21,88,81,75,76,74,71,92,80,61,30.05,29.96,16,6,22,0.16
2013-4-22,85,80,74,76,74,71,95,82,71,30.02,29.91,15,5,22,2.00
2013-4-23,88,80,75,75,72,69,89,77,56,30.03,29.93,15,10,28,0.01
2013-4-24,86,80,75,72,69,67,77,70,60,30.09,30.00,17,9,26,0.00
2013-4-25,85,78,75,70,67,62,75,69,48,30.15,30.05,11,7,19,0.00
2013-4-26,83,78,75,67,66,64,74,66,53,30.16,30.11,13,10,25,0.00
2013-4-27,84,78,74,70,67,65,79,70,58,30.16,30.03,13,9,21,0.00
2013-4-28,85,79,74,72,70,-100,87,76,63,30.06,29.94,12,9,23,0.00
2013-4-29,84,78,74,77,73,69,91,83,73,29.99,29.89,17,9,27,0.16
2013-4-30,85,81,75,77,75,71,91,82,75,29.96,29.88,17,8,25,0.34
2013-5-1,83,80,77,78,75,73,90,85,81,29.97,29.86,11,2,17,0.13
2013-5-2,81,74,70,75,71,67,96,91,83,29.91,29.79,0,0,0,3.86
2013-5-3,85,77,69,76,72,67,94,85,68,29.83,29.70,0,0,0,0.03
2013-5-4,79,77,75,72,70,64,86,80,68,29.85,29.72,0,0,0,0.02
2013-5-5,79,74,72,67,64,62,79,72,61,29.95,29.80,0,0,0,0.00
2013-5-6,84,76,71,70,66,64,82,72,56,30.03,29.93,0,0,0,0.00
2013-5-7,82,77,73,71,68,66,84,75,64,30.07,29.97,0,0,0,0.00
2013-5-8,86,78,70,73,69,66,87,76,62,30.12,30.04,11,2,15,0.00
2013-5-9,88,80,75,76,72,68,87,78,65,30.12,30.03,12,7,16,0.00
2013-5-10,89,81,78,80,74,-100,90,82,71,30.10,30.00,8,5,13,0.00
2013-5-11,87,82,79,78,76,74,90,82,72,30.05,29.98,11,7,17,0.00
2013-5-12,87,81,79,76,74,-100,89,80,67,30.04,29.96,13,6,21,0.00
2013-5-13,88,81,77,79,76,73,89,83,71,30.09,29.98,16,7,22,0.32
2013-5-14,84,80,77,75,71,66,87,76,62,30.12,30.02,19,12,23,0.32
2013-5-15,85,78,75,71,67,64,78,69,59,30.13,30.05,13,9,22,0.00
2013-5-16,86,74,75,72,47,-100,78,71,60,30.07,29.98,11,8,19,0.00
2013-5-17,90,80,76,78,66,-100,88,78,65,30.06,29.99,8,4,15,0.00
2013-5-18,89,83,78,78,76,74,89,80,69,30.08,30.00,9,6,16,0.00
2013-5-19,89,83,79,77,74,72,85,76,65,30.06,29.96,10,6,16,0.00
2013-5-20,89,82,77,79,75,71,86,79,70,30.03,29.95,20,6,24,0.00
2013-5-21,90,83,78,78,76,73,87,79,68,29.99,29.88,10,6,17,0.00
2013-5-22,88,83,79,79,77,74,87,81,72,29.95,29.87,12,6,16,0.00
2013-5-23,93,84,80,81,77,74,85,78,66,30.01,29.91,13,6,16,0.00
2013-5-24,94,84,79,79,76,74,88,78,60,30.06,29.96,13,6,15,0.00
2013-5-25,91,83,77,77,75,70,89,76,57,30.10,30.00,22,6,29,0.04
2013-5-26,90,83,78,72,70,65,78,66,47,30.13,30.05,15,9,24,0.04
2013-5-27,89,80,77,77,74,69,90,81,65,30.09,29.98,14,8,27,0.07
2013-5-28,82,78,74,77,74,72,94,88,82,30.05,29.97,19,9,28,0.65
2013-5-29,78,76,73,76,74,71,96,93,86,30.03,29.94,14,6,21,1.49
2013-5-30,88,80,74,79,76,72,96,88,73,30.00,29.93,11,5,19,0.15
2013-5-31,90,82,76,80,76,73,91,83,70,30.01,29.95,11,5,16,0.00
2013-6-1,91,82,76,81,77,74,94,85,71,30.01,29.92,23,4,33,0.57
2013-6-2,87,79,73,79,74,-100,94,89,77,29.99,29.90,19,4,28,1.11
2013-6-3,83,78,73,79,75,71,95,91,83,30.01,29.89,13,2,20,0.44
2013-6-4,83,79,73,80,76,71,96,92,86,30.00,29.93,0,0,0,0.26
2013-6-5,84,81,78,81,78,75,94,90,87,29.97,29.83,0,0,0,0.09
2013-6-6,85,81,76,81,78,72,95,91,86,29.87,29.77,0,0,0,0.65
2013-6-7,86,81,76,82,78,74,95,90,80,29.98,29.84,0,0,0,0.55
2013-6-8,90,84,78,82,79,76,94,87,77,30.05,29.95,0,0,0,0.14
2013-6-9,90,84,80,80,78,75,88,81,72,30.06,29.98,0,0,0,0.00
2013-6-10,90,85,81,81,78,76,89,81,71,30.04,29.96,0,0,0,0.00
2013-6-11,92,85,81,81,78,77,91,82,70,30.05,29.98,0,0,0,0.00
2013-6-12,88,82,77,81,77,73,92,85,73,30.06,29.98,0,0,0,0.41
2013-6-13,89,83,79,80,76,74,88,81,71,30.04,29.93,0,0,0,0.01
2013-6-14,88,83,80,79,76,72,87,81,74,29.97,29.90,0,0,0,0.01
2013-6-15,92,84,80,79,77,75,88,81,63,30.03,29.93,0,0,0,0.01
2013-6-16,92,86,80,81,77,74,85,77,66,30.05,29.98,0,0,0,0.00
2013-6-17,92,86,82,82,79,77,86,80,70,30.04,29.97,0,0,0,0.00
2013-6-18,92,86,82,82,79,77,88,81,70,30.03,29.96,0,0,0,0.00
2013-6-19,92,86,83,81,79,77,86,79,70,30.02,29.96,0,0,0,0.00
2013-6-20,93,86,83,80,78,76,83,76,65,30.05,29.98,0,0,0,0.00
2013-6-22,94,89,83,79,78,76,81,69,60,30.07,30.00,0,0,0,0.01
2013-6-23,92,86,82,79,77,75,83,76,64,30.08,29.99,0,0,0,0.01
2013-6-24,92,85,80,80,77,74,87,76,64,30.12,30.03,0,0,0,0.01
2013-6-25,93,85,81,80,78,76,85,79,64,30.08,29.99,0,0,0,0.01
2013-6-26,89,84,81,80,78,75,87,80,68,30.05,29.97,0,0,0,0.02
2013-6-27,90,84,81,81,77,73,85,80,69,30.03,29.94,0,0,0,0.01
2013-6-28,92,85,81,81,78,75,88,78,67,29.98,29.86,0,0,0,0.06
2013-6-29,89,85,82,79,78,76,86,79,72,29.92,29.84,0,0,0,0.01
2013-6-30,87,84,78,79,77,74,91,82,73,29.93,29.84,0,0,0,0.05
2013-7-1,84,82,76,78,76,74,93,83,77,29.99,29.88,0,0,0,0.56
2013-7-2,89,81,75,81,77,73,95,87,76,30.07,29.94,0,0,0,1.39
2013-7-3,86,81,76,79,76,71,96,86,73,30.08,30.00,0,0,0,0.74
2013-7-4,90,84,80,81,78,76,90,81,72,30.09,30.01,0,0,0,0.03
2013-7-5,87,79,75,80,76,73,95,90,80,30.09,30.01,0,0,0,1.09
2013-7-6,89,83,78,81,78,76,95,86,74,30.06,29.98,0,0,0,0.14
2013-7-7,90,84,80,80,77,73,88,79,68,30.05,29.98,0,0,0,0.02
2013-7-8,90,83,78,78,76,72,92,81,64,30.10,30.02,0,0,0,0.03
2013-7-9,89,82,80,79,75,73,88,81,66,30.11,30.03,0,0,0,0.01
2013-7-10,91,81,79,79,73,-100,89,80,68,30.06,29.97,0,0,0,0.00
2013-7-11,90,83,80,80,77,75,86,81,69,30.02,29.92,0,-10,1,0.00
2013-7-12,87,83,80,78,76,73,84,79,72,29.96,29.89,0,0,0,0.00
2013-7-13,88,82,74,80,76,71,94,84,73,29.98,29.90,0,0,0,0.98
2013-7-14,90,82,79,82,77,74,93,84,75,30.04,29.93,0,0,0,1.71
2013-7-15,87,81,78,78,75,72,88,81,68,30.05,29.97,0,0,0,0.19
2013-7-16,85,80,74,79,75,72,94,85,77,30.07,29.98,0,0,0,1.52
2013-7-17,82,77,74,77,75,72,95,92,83,30.09,30.00,0,0,0,1.66
2013-7-18,83,78,75,79,75,73,93,91,85,30.10,30.01,0,0,0,0.49
2013-7-19,90,83,77,81,78,75,95,88,75,30.09,30.00,0,0,0,0.02
2013-7-20,90,84,80,83,78,-100,94,85,76,30.08,29.99,0,0,0,0.06
2013-7-21,91,85,82,82,79,77,90,82,73,30.11,30.03,0,0,1,0.01
2013-7-22,92,84,81,81,77,76,86,80,68,30.13,30.04,0,0,0,0.00
2013-7-23,91,85,81,81,78,75,86,79,68,30.10,29.98,0,0,0,0.00
2013-7-24,89,85,80,79,76,74,85,77,67,30.02,29.94,0,0,1,0.00
2013-7-25,89,84,82,78,76,75,84,77,67,30.03,29.93,0,0,0,0.00
2013-7-26,92,87,84,80,78,77,84,76,65,30.03,29.98,0,0,0,0.00
2013-7-27,93,87,83,79,78,75,86,75,62,30.02,29.94,0,0,0,0.00
2013-7-28,93,86,80,79,76,73,87,73,56,30.05,29.93,0,0,0,0.00
2013-7-29,94,86,81,81,78,76,87,78,65,30.10,29.99,0,0,0,0.06
2013-7-30,88,84,80,81,78,76,92,84,76,30.12,30.03,0,0,0,0.35
2013-7-31,93,86,82,81,78,76,89,78,65,30.07,29.95,0,0,8,0.01
2013-8-1,93,86,83,79,77,76,84,75,62,30.01,29.91,0,0,0,0.00
2013-8-2,92,85,81,80,78,75,88,78,66,30.05,29.91,0,0,0,0.00
2013-8-3,92,87,83,80,78,76,84,76,67,30.10,30.01,0,0,0,0.00
2013-8-4,93,86,81,82,78,75,86,77,67,30.10,30.00,0,0,0,0.00
2013-8-5,94,86,82,80,78,74,84,76,54,30.05,29.97,0,0,0,0.00
2013-8-6,88,83,80,80,78,76,92,85,77,29.99,29.89,0,0,0,0.34
2013-8-7,91,85,80,81,78,76,91,81,68,29.93,29.88,0,0,0,0.01
2013-8-8,91,84,78,81,78,74,92,80,69,29.96,29.87,0,0,0,0.55
2013-8-9,90,84,79,80,76,72,87,78,64,30.00,29.89,0,0,0,0.02
2013-8-10,90,84,79,81,78,76,91,83,73,30.06,29.97,0,0,0,0.30
2013-8-11,92,86,83,81,79,77,86,79,69,30.09,30.00,0,0,0,0.09
2013-8-12,91,84,81,80,78,76,91,80,66,30.07,29.97,0,0,0,0.01
2013-8-13,93,85,82,80,75,-100,85,76,66,30.01,29.93,0,-233,0,0.01
2013-8-21,92,85,79,82,79,76,92,82,70,30.02,29.93,13,7,21,0.20
2013-8-22,86,82,77,81,78,74,94,90,84,30.01,29.96,12,9,23,0.87
2013-8-23,92,87,84,82,79,78,83,77,70,29.98,29.91,9,6,14,0.00
2013-8-24,92,86,80,81,78,75,90,79,68,30.05,29.94,10,6,18,0.08
2013-8-25,94,84,83,81,75,-100,85,78,66,30.10,29.99,14,6,18,0.08
2013-8-26,87,82,76,79,76,73,93,84,70,30.08,29.97,13,6,21,0.30
2013-8-27,83,80,79,77,75,74,88,85,81,30.02,29.95,12,5,21,0.01
2013-9-5,92,86,83,82,79,77,86,79,70,30.02,29.95,10,7,17,0.17
2013-9-6,93,86,83,81,79,76,86,79,68,30.01,29.89,12,6,20,0.00
2013-9-7,88,83,78,79,77,74,92,83,69,29.98,29.86,9,6,15,0.44
2013-9-8,92,82,76,79,73,-100,91,80,60,29.93,29.83,7,5,12,0.66
2013-9-9,91,84,80,80,77,75,88,80,71,29.96,29.86,10,5,19,0.08
2013-9-10,91,84,79,79,77,75,90,81,69,29.99,29.90,11,7,18,0.13
2013-9-11,89,83,80,80,78,76,91,84,73,29.98,29.92,11,7,18,0.40
2013-9-13,91,86,82,80,78,76,83,76,68,29.88,29.79,6,4,9,0.00
2013-9-14,90,84,80,79,77,75,87,79,70,29.94,29.81,8,4,15,0.00
2013-9-15,85,79,74,80,74,-100,95,87,84,30.01,29.88,25,7,36,0.81
2013-9-16,82,81,78,79,77,74,94,89,82,30.02,29.91,13,7,23,0.02
2013-9-17,82,80,75,79,77,73,95,91,84,30.00,29.88,18,7,22,0.48
2013-9-25,91,86,83,82,80,78,89,82,70,29.90,29.82,11,6,15,0.00
2013-9-26,91,86,83,81,79,78,88,82,72,29.90,29.82,17,8,21,0.00
2013-9-27,92,85,82,81,78,74,89,80,64,29.91,29.82,17,9,20,0.00
2013-9-28,91,84,80,79,76,75,88,77,65,29.93,29.84,10,4,14,0.00
2013-9-29,91,82,76,78,72,-100,91,77,65,29.93,29.84,8,5,13,0.18
2013-9-30,92,85,80,78,76,74,86,77,63,29.96,29.86,11,6,27,0.23
2013-10-1,80,79,78,74,74,74,88,86,83,29.95,29.95,12,11,27,0.24
2013-10-2,87,85,82,79,78,77,89,82,76,29.98,29.92,10,7,18,0.36
2013-10-3,88,84,82,81,78,76,87,83,76,30.00,29.90,10,6,16,0.03
2013-10-4,89,84,81,80,78,76,88,81,74,30.01,29.94,9,6,16,0.00
2013-10-5,86,82,80,78,75,74,85,80,73,29.99,29.90,10,6,13,0.00
2013-10-6,87,83,80,78,75,72,87,78,70,29.95,29.86,8,3,14,0.06
2013-10-7,87,84,81,80,77,75,85,81,77,29.91,29.83,12,6,16,0.06
2013-10-8,86,83,82,80,78,76,89,84,78,29.94,29.84,14,6,18,0.00
2013-10-9,86,82,80,77,75,70,87,78,60,29.98,29.90,10,5,13,0.00
2013-10-10,88,82,78,78,76,75,93,84,71,30.00,29.91,14,7,22,0.16
2013-10-18,89,82,78,80,76,74,89,83,73,29.95,29.87,9,6,16,0.00
2013-10-19,86,83,80,79,77,75,88,83,75,29.93,29.86,10,5,15,0.00
2013-10-20,87,81,78,80,75,-100,94,84,76,29.94,29.85,11,5,21,0.67
2013-10-21,90,84,79,80,78,76,95,83,70,29.98,29.89,8,4,11,0.01
2013-10-22,89,84,81,81,78,76,87,81,73,29.94,29.84,9,5,15,0.01
2013-10-23,90,84,81,80,78,77,88,82,70,29.93,29.82,15,6,19,0.02
2013-10-24,84,80,76,76,74,71,92,81,72,30.05,29.90,18,14,27,0.05
2013-10-25,81,79,77,72,70,67,81,74,68,30.11,30.03,20,16,29,0.00
2013-10-26,83,78,75,71,70,69,83,75,64,30.10,30.02,19,13,25,0.00
2013-10-27,83,77,75,70,67,-100,80,73,65,30.06,29.98,16,10,21,0.00
2013-10-28,85,78,75,73,69,-100,89,78,60,30.10,30.00,15,9,19,0.00
2013-10-29,85,79,76,73,72,69,87,78,61,30.14,30.04,16,11,24,0.00
2013-10-30,85,80,76,73,71,70,86,76,64,30.13,30.03,15,9,23,0.00
2014-1-1,85,79,74,77,74,71,93,85,75,30.13,30.01,13,8,22,0.00
2014-1-2,83,78,76,75,73,71,92,84,76,30.01,29.90,13,7,19,0.00